createdAt,value
2023-03-02T00:01:51.215Z,65.70
2023-03-02T00:04:28.408Z,89.50
2023-03-02T00:07:00.722Z,88.40
2023-03-02T00:09:30.143Z,87.20
2023-03-02T00:11:58.154Z,90.10
2023-03-02T00:14:26.100Z,86.20
2023-03-02T00:16:53.923Z,90.40
2023-03-02T00:19:21.830Z,87.30
2023-03-02T00:21:49.857Z,85.60
2023-03-02T00:24:17.736Z,82.20
2023-03-02T00:26:45.815Z,80.10
2023-03-02T00:29:14.262Z,78.50
2023-03-02T00:31:42.188Z,74.50
2023-03-02T00:34:10.137Z,73.50
2023-03-02T00:36:38.084Z,76.10
2023-03-02T00:39:06.016Z,73.80
2023-03-02T00:41:33.914Z,74.80
2023-03-02T00:44:02.031Z,74.80
2023-03-02T00:46:30.158Z,74.50
2023-03-02T00:48:58.246Z,73.00
2023-03-02T00:51:26.168Z,69.30
2023-03-02T00:53:54.054Z,70.40
2023-03-02T00:56:21.937Z,72.90
2023-03-02T00:58:50.285Z,75.10
2023-03-02T01:01:18.964Z,77.60
2023-03-02T01:03:49.807Z,76.60
2023-03-02T01:06:19.626Z,80.60
2023-03-02T01:08:47.925Z,76.60
2023-03-02T01:11:19.156Z,71.10
2023-03-02T01:13:47.682Z,74.40
2023-03-02T01:16:16.018Z,73.90
2023-03-02T01:18:44.120Z,75.00
2023-03-02T01:21:14.715Z,78.10
2023-03-02T01:23:42.986Z,69.30
2023-03-02T01:26:10.974Z,73.40
2023-03-02T01:28:38.909Z,77.50
2023-03-02T01:31:06.863Z,79.80
2023-03-02T01:33:35.270Z,82.50
2023-03-02T01:36:03.433Z,84.70
2023-03-02T01:38:31.488Z,80.40
2023-03-02T01:40:59.401Z,76.00
2023-03-02T01:43:29.447Z,71.50
2023-03-02T01:46:26.669Z,72.10
2023-03-02T01:49:12.823Z,75.30
2023-03-02T01:51:51.788Z,72.60
2023-03-02T01:54:23.271Z,70.50
2023-03-02T01:56:59.502Z,69.40
2023-03-02T01:59:30.737Z,66.80
2023-03-02T02:02:02.800Z,66.40
2023-03-02T02:04:32.991Z,68.40
2023-03-02T02:07:03.850Z,63.50
2023-03-02T02:09:36.583Z,62.80
2023-03-02T02:12:05.894Z,61.40
2023-03-02T02:14:35.038Z,58.90
2023-03-02T02:17:03.060Z,59.00
2023-03-02T02:19:49.857Z,59.60
2023-03-02T02:22:28.618Z,58.10
2023-03-02T02:25:02.655Z,57.10
2023-03-02T02:27:33.604Z,61.00
2023-03-02T02:30:04.525Z,61.70
2023-03-02T02:32:36.548Z,59.30
2023-03-02T02:35:11.369Z,59.80
2023-03-02T02:37:44.822Z,60.70
2023-03-02T02:40:49.479Z,60.50
2023-03-02T02:43:21.398Z,59.40
2023-03-02T02:45:53.895Z,60.20
2023-03-02T02:48:24.331Z,60.00
2023-03-02T02:51:00.226Z,59.40
2023-03-02T02:53:42.988Z,61.20
2023-03-02T02:56:13.156Z,61.40
2023-03-02T02:58:49.196Z,63.40
2023-03-02T03:01:20.544Z,60.60
2023-03-02T03:04:01.680Z,59.00
2023-03-02T03:06:42.221Z,58.20
2023-03-02T03:09:11.864Z,55.80
2023-03-02T03:11:50.446Z,58.70
2023-03-02T03:14:22.330Z,56.10
2023-03-02T03:16:52.352Z,55.10
2023-03-02T03:19:26.350Z,54.40
2023-03-02T03:21:57.899Z,55.00
2023-03-02T03:24:28.666Z,54.80
2023-03-02T03:26:57.959Z,57.10
2023-03-02T03:29:28.576Z,59.00
2023-03-02T03:32:01.082Z,58.80
2023-03-02T03:34:30.991Z,59.40
2023-03-02T03:37:01.845Z,59.60
2023-03-02T03:39:32.954Z,59.70
2023-03-02T03:42:01.419Z,59.80
2023-03-02T03:44:30.131Z,59.80
2023-03-02T03:46:58.681Z,60.00
2023-03-02T03:49:27.050Z,61.10
2023-03-02T03:51:55.709Z,64.40
2023-03-02T03:54:24.106Z,63.50
2023-03-02T03:56:52.160Z,59.90
2023-03-02T03:59:23.215Z,59.50
2023-03-02T04:02:00.047Z,58.60
2023-03-02T04:04:35.555Z,58.50
2023-03-02T04:07:10.227Z,59.20
2023-03-02T04:09:39.314Z,57.30
2023-03-02T04:12:09.705Z,59.00
2023-03-02T04:14:38.912Z,60.40
2023-03-02T04:17:07.155Z,61.40
2023-03-02T04:19:38.079Z,67.00
2023-03-02T04:22:06.652Z,69.50
2023-03-02T04:24:35.243Z,68.90
2023-03-02T04:27:04.710Z,71.10
2023-03-02T04:29:34.489Z,74.10
2023-03-02T04:32:03.968Z,76.80
2023-03-02T04:34:34.123Z,71.90
2023-03-02T04:37:03.024Z,73.60
2023-03-02T04:39:31.048Z,69.20
2023-03-02T04:41:59.248Z,67.60
2023-03-02T04:44:27.160Z,63.40
2023-03-02T04:46:55.097Z,60.10
2023-03-02T04:49:23.082Z,56.30
2023-03-02T04:51:51.029Z,56.40
2023-03-02T04:54:22.714Z,54.10
2023-03-02T04:56:51.677Z,53.70
2023-03-02T04:59:24.145Z,59.50
2023-03-02T05:01:55.048Z,61.60
2023-03-02T05:04:23.342Z,61.70
2023-03-02T05:06:51.246Z,62.30
2023-03-02T05:09:19.666Z,64.30
2023-03-02T05:11:47.677Z,64.60
2023-03-02T05:14:15.558Z,59.50
2023-03-02T05:16:43.600Z,60.80
2023-03-02T05:19:12.551Z,65.80
2023-03-02T05:21:40.799Z,60.90
2023-03-02T05:24:08.767Z,63.00
2023-03-02T05:26:37.434Z,59.40
2023-03-02T05:29:06.020Z,56.10
2023-03-02T05:31:42.867Z,59.80
2023-03-02T05:34:12.699Z,59.70
2023-03-02T05:36:40.715Z,60.30
2023-03-02T05:39:09.472Z,61.20
2023-03-02T05:41:38.048Z,62.60
2023-03-02T05:44:09.461Z,63.90
2023-03-02T05:46:38.073Z,59.00
2023-03-02T05:49:06.415Z,60.00
2023-03-02T05:51:34.340Z,58.80
2023-03-02T05:54:02.355Z,58.80
2023-03-02T05:56:30.462Z,61.60
2023-03-02T05:58:58.536Z,62.60
2023-03-02T06:01:26.514Z,65.20
2023-03-02T06:03:54.353Z,65.90
2023-03-02T06:06:22.262Z,66.20
2023-03-02T06:08:50.151Z,67.10
2023-03-02T06:11:18.040Z,67.60
2023-03-02T06:13:45.978Z,64.90
2023-03-02T06:16:13.974Z,66.10
2023-03-02T06:18:41.907Z,62.90
2023-03-02T06:21:10.094Z,63.40
2023-03-02T06:23:38.079Z,64.00
2023-03-02T06:26:10.679Z,64.30
2023-03-02T06:28:51.562Z,61.90
2023-03-02T06:31:21.861Z,69.00
2023-03-02T06:33:49.945Z,62.80
2023-03-02T06:36:18.247Z,62.10
2023-03-02T06:38:46.186Z,68.30
2023-03-02T06:41:14.155Z,90.80
2023-03-02T06:43:42.382Z,83.60
2023-03-02T06:46:11.299Z,75.20
2023-03-02T06:48:39.288Z,81.50
2023-03-02T06:51:08.018Z,94.10
2023-03-02T06:53:35.914Z,79.70
2023-03-02T06:56:04.465Z,65.80
2023-03-02T06:58:32.379Z,76.90
2023-03-02T07:01:00.385Z,73.90
2023-03-02T07:03:28.408Z,74.20
2023-03-02T07:05:56.312Z,75.40
2023-03-02T07:08:24.283Z,74.00
2023-03-02T07:10:52.353Z,76.50
2023-03-02T07:13:20.480Z,81.00
2023-03-02T07:15:48.435Z,81.90
2023-03-02T07:18:16.365Z,81.70
2023-03-02T07:20:44.238Z,82.30
2023-03-02T07:23:12.261Z,77.90
2023-03-02T07:25:40.165Z,74.50
2023-03-02T07:28:08.053Z,76.10
2023-03-02T07:30:36.025Z,73.00
2023-03-02T07:33:03.952Z,73.80
2023-03-02T07:35:31.836Z,63.50
2023-03-02T07:37:59.738Z,73.50
2023-03-02T07:40:27.650Z,75.50
2023-03-02T07:42:55.534Z,68.10
2023-03-02T07:45:25.038Z,61.70
2023-03-02T07:47:53.052Z,62.40
2023-03-02T07:50:20.954Z,66.30
2023-03-02T07:52:48.813Z,75.00
2023-03-02T07:55:16.752Z,68.50
2023-03-02T07:57:45.953Z,52.90
2023-03-02T08:00:14.863Z,50.90
2023-03-02T08:02:43.303Z,57.90
2023-03-02T08:05:12.222Z,54.70
2023-03-02T08:07:43.987Z,58.30
2023-03-02T08:10:12.078Z,59.10
2023-03-02T08:12:40.492Z,68.40
2023-03-02T08:15:09.690Z,57.50
2023-03-02T08:17:37.641Z,54.70
2023-03-02T08:20:06.301Z,52.10
2023-03-02T08:22:34.403Z,50.40
2023-03-02T08:25:02.762Z,35.80
2023-03-02T08:27:30.712Z,35.90
2023-03-02T08:29:58.655Z,29.90
2023-03-02T08:32:26.519Z,33.90
2023-03-02T08:34:54.688Z,32.40
2023-03-02T08:37:22.571Z,34.90
2023-03-02T08:39:51.826Z,32.70
2023-03-02T08:42:19.803Z,33.90
2023-03-02T08:44:47.675Z,30.00
2023-03-02T08:47:15.635Z,32.40
2023-03-02T08:49:43.596Z,32.10
2023-03-02T08:52:11.491Z,35.50
2023-03-02T08:54:40.745Z,34.20
2023-03-02T08:57:11.893Z,36.90
2023-03-02T08:59:40.243Z,35.70
2023-03-02T09:02:11.285Z,34.70
2023-03-02T09:04:39.496Z,34.30
2023-03-02T09:07:07.519Z,30.30
2023-03-02T09:09:35.906Z,29.50
2023-03-02T09:12:03.998Z,30.50
2023-03-02T09:14:31.868Z,30.30
2023-03-02T09:16:59.897Z,32.30
2023-03-02T09:19:27.933Z,32.60
2023-03-02T09:21:55.861Z,29.90
2023-03-02T09:24:23.738Z,31.30
2023-03-02T09:26:51.679Z,30.50
2023-03-02T09:29:19.539Z,31.10
2023-03-02T09:31:47.462Z,31.60
2023-03-02T09:34:15.290Z,33.50
2023-03-02T09:36:43.216Z,33.10
2023-03-02T09:39:12.559Z,34.30
2023-03-02T09:41:57.087Z,30.70
2023-03-02T09:45:00.250Z,31.30
2023-03-02T09:47:38.666Z,40.30
2023-03-02T09:50:06.519Z,30.60
2023-03-02T09:53:03.708Z,29.20
2023-03-02T09:55:36.298Z,30.90
2023-03-02T09:58:16.220Z,28.80
2023-03-02T10:00:45.970Z,24.80
2023-03-02T10:03:20.446Z,26.50
2023-03-02T10:05:51.202Z,28.70
2023-03-02T10:08:22.854Z,30.90
2023-03-02T10:11:12.794Z,27.90
2023-03-02T10:13:47.878Z,27.30
2023-03-02T10:16:31.673Z,27.10
2023-03-02T10:21:46.099Z,25.30
2023-03-02T10:24:29.197Z,26.30
2023-03-02T10:27:28.815Z,25.40
2023-03-02T10:30:08.051Z,24.00
2023-03-02T10:32:41.960Z,22.90
2023-03-02T10:35:29.910Z,22.40
2023-03-02T10:38:04.623Z,21.50
2023-03-02T10:40:52.928Z,21.50
2023-03-02T10:43:45.525Z,21.60
2023-03-02T10:46:14.434Z,20.00
2023-03-02T10:48:53.194Z,22.40
2023-03-02T10:51:32.937Z,20.70
2023-03-02T10:54:07.151Z,22.00
2023-03-02T10:56:35.894Z,20.30
2023-03-02T10:59:27.899Z,21.20
2023-03-02T11:02:18.605Z,23.20
2023-03-02T11:04:46.654Z,19.60
2023-03-02T11:07:20.477Z,20.30
2023-03-02T11:12:25.500Z,20.50
2023-03-02T11:15:27.133Z,21.00
2023-03-02T11:18:15.230Z,19.80
2023-03-02T11:20:47.186Z,20.30
2023-03-02T11:23:33.351Z,26.70
2023-03-02T11:26:08.019Z,20.00
2023-03-02T11:28:43.339Z,20.40
2023-03-02T11:31:22.443Z,22.10
2023-03-02T11:34:07.924Z,19.70
2023-03-02T11:37:03.671Z,19.50
2023-03-02T11:39:55.057Z,20.10
2023-03-02T11:42:30.153Z,19.90
2023-03-02T11:45:03.741Z,20.10
2023-03-02T11:47:32.930Z,17.90
2023-03-02T11:50:05.383Z,17.50
2023-03-02T11:52:39.023Z,17.70
2023-03-02T11:57:49.955Z,17.60
2023-03-02T12:00:29.891Z,18.70
2023-03-02T12:03:03.058Z,17.60
2023-03-02T12:05:35.717Z,20.00
2023-03-02T12:08:28.519Z,19.80
2023-03-02T12:11:27.064Z,21.00
2023-03-02T12:13:54.891Z,22.90
2023-03-02T12:16:35.944Z,21.60
2023-03-02T12:19:17.516Z,18.00
2023-03-02T12:22:06.994Z,17.50
2023-03-02T12:24:37.741Z,19.00
2023-03-02T12:27:21.009Z,18.00
2023-03-02T12:29:55.471Z,16.90
2023-03-02T12:32:27.404Z,17.50
2023-03-02T12:35:01.624Z,18.80
2023-03-02T12:37:37.614Z,18.60
2023-03-02T12:40:14.767Z,19.30
2023-03-02T12:43:01.336Z,18.40
2023-03-02T12:46:03.589Z,15.00
2023-03-02T12:49:01.956Z,18.10
2023-03-02T12:51:43.892Z,20.10
2023-03-02T12:54:20.693Z,20.60
2023-03-02T12:56:49.572Z,24.00
2023-03-02T12:59:23.509Z,26.10
2023-03-02T13:01:52.363Z,24.30
2023-03-02T13:04:26.048Z,24.50
2023-03-02T13:06:54.558Z,23.30
2023-03-02T13:09:23.137Z,22.40
2023-03-02T13:11:54.809Z,22.50
2023-03-02T13:14:28.151Z,24.70
2023-03-02T13:17:03.265Z,20.90
2023-03-02T13:19:32.265Z,25.20
2023-03-02T13:22:00.753Z,22.20
2023-03-02T13:24:51.499Z,21.50
2023-03-02T13:27:22.731Z,21.00
2023-03-02T13:29:57.892Z,19.90
2023-03-02T13:32:35.043Z,19.20
2023-03-02T13:35:03.546Z,19.10
2023-03-02T13:37:39.333Z,19.50
2023-03-02T13:40:27.365Z,18.20
2023-03-02T13:42:55.725Z,18.90
2023-03-02T13:45:23.807Z,18.30
2023-03-02T13:47:53.698Z,20.10
2023-03-02T13:50:27.953Z,20.30
2023-03-02T13:52:58.638Z,20.30
2023-03-02T13:55:26.786Z,20.10
2023-03-02T13:57:55.981Z,22.10
2023-03-02T14:00:31.099Z,19.50
2023-03-02T14:02:59.380Z,21.80
2023-03-02T14:05:33.279Z,22.40
2023-03-02T14:08:06.950Z,23.40
2023-03-02T14:10:34.847Z,20.10
2023-03-02T14:13:08.557Z,18.80
2023-03-02T14:15:42.226Z,18.50
2023-03-02T14:20:44.073Z,17.30
2023-03-02T14:23:12.097Z,18.70
2023-03-02T14:25:40.127Z,17.30
2023-03-02T14:28:13.005Z,17.30
2023-03-02T14:30:44.109Z,18.10
2023-03-02T14:33:17.595Z,17.60
2023-03-02T14:35:45.832Z,17.40
2023-03-02T14:38:13.996Z,18.40
2023-03-02T14:40:42.072Z,16.60
2023-03-02T14:43:10.418Z,16.90
2023-03-02T14:45:38.335Z,15.20
2023-03-02T14:48:06.233Z,16.00
2023-03-02T14:50:38.552Z,18.40
2023-03-02T14:53:12.644Z,18.30
2023-03-02T14:55:42.186Z,19.20
2023-03-02T14:58:32.683Z,19.10
2023-03-02T15:01:01.203Z,22.30
2023-03-02T15:03:29.437Z,23.50
2023-03-02T15:06:02.075Z,23.90
2023-03-02T15:08:30.489Z,22.50
2023-03-02T15:10:58.547Z,33.50
2023-03-02T15:13:26.572Z,28.70
2023-03-02T15:15:54.569Z,28.80
2023-03-02T15:18:22.566Z,24.10
2023-03-02T15:20:50.666Z,23.70
2023-03-02T15:23:18.685Z,24.60
2023-03-02T15:25:46.561Z,23.00
2023-03-02T15:28:14.558Z,21.50
2023-03-02T15:30:42.499Z,21.40
2023-03-02T15:33:10.509Z,21.80
2023-03-02T15:35:40.197Z,22.10
2023-03-02T15:38:08.294Z,22.10
2023-03-02T15:40:39.124Z,22.30
2023-03-02T15:43:07.172Z,22.50
2023-03-02T15:45:35.110Z,20.80
2023-03-02T15:48:04.075Z,21.70
2023-03-02T15:50:32.084Z,21.50
2023-03-02T15:53:00.009Z,23.80
2023-03-02T15:55:27.994Z,28.00
2023-03-02T15:57:58.244Z,25.80
2023-03-02T16:00:27.882Z,24.00
2023-03-02T16:02:55.955Z,25.60
2023-03-02T16:05:24.152Z,26.80
2023-03-02T16:07:53.702Z,26.40
2023-03-02T16:10:24.370Z,25.80
2023-03-02T16:12:52.386Z,25.90
2023-03-02T16:15:20.470Z,28.00
2023-03-02T16:17:48.505Z,30.20
2023-03-02T16:20:16.677Z,27.60
2023-03-02T16:22:44.844Z,29.50
2023-03-02T16:25:13.047Z,31.30
2023-03-02T16:27:41.156Z,30.40
2023-03-02T16:30:09.903Z,41.90
2023-03-02T16:32:38.657Z,34.90
2023-03-02T16:35:08.762Z,32.50
2023-03-02T16:37:37.065Z,35.20
2023-03-02T16:40:05.597Z,31.70
2023-03-02T16:42:33.657Z,29.00
2023-03-02T16:45:01.517Z,30.60
2023-03-02T16:47:29.387Z,29.30
2023-03-02T16:49:58.131Z,28.70
2023-03-02T16:52:26.102Z,32.60
2023-03-02T16:54:54.220Z,35.10
2023-03-02T16:57:22.182Z,32.90
2023-03-02T16:59:50.261Z,30.40
2023-03-02T17:02:18.205Z,31.70
2023-03-02T17:04:46.273Z,31.90
2023-03-02T17:07:14.204Z,25.80
2023-03-02T17:09:42.103Z,28.70
2023-03-02T17:12:10.113Z,29.70
2023-03-02T17:14:38.006Z,37.40
2023-03-02T17:17:06.053Z,44.50
2023-03-02T17:19:34.327Z,48.40
2023-03-02T17:22:04.263Z,34.80
2023-03-02T17:24:33.415Z,37.10
2023-03-02T17:27:01.505Z,36.90
2023-03-02T17:29:29.558Z,34.80
2023-03-02T17:31:57.707Z,44.90
2023-03-02T17:34:31.282Z,83.40
2023-03-02T17:37:00.904Z,60.60
2023-03-02T17:39:29.298Z,51.50
2023-03-02T17:41:57.404Z,94.10
2023-03-02T17:44:25.540Z,42.40
2023-03-02T17:46:53.970Z,47.30
2023-03-02T17:49:22.133Z,47.50
2023-03-02T17:51:50.205Z,50.20
2023-03-02T17:54:18.175Z,52.80
2023-03-02T17:56:46.164Z,56.40
2023-03-02T17:59:14.486Z,58.10
2023-03-02T18:01:44.159Z,63.30
2023-03-02T18:04:12.515Z,57.70
2023-03-02T18:06:40.588Z,54.40
2023-03-02T18:09:08.571Z,52.40
2023-03-02T18:11:36.810Z,56.70
2023-03-02T18:14:04.774Z,57.60
2023-03-02T18:16:34.134Z,56.80
2023-03-02T18:19:03.141Z,64.10
2023-03-02T18:21:31.439Z,75.60
2023-03-02T18:23:59.626Z,70.70
2023-03-02T18:26:27.762Z,70.10
2023-03-02T18:28:55.784Z,63.10
2023-03-02T18:31:24.102Z,55.60
2023-03-02T18:33:52.355Z,53.80
2023-03-02T18:36:20.418Z,56.60
2023-03-02T18:38:48.799Z,58.90
2023-03-02T18:41:16.872Z,52.00
2023-03-02T18:43:44.862Z,50.70
2023-03-02T18:46:19.769Z,50.90
2023-03-02T18:48:50.266Z,49.00
2023-03-02T18:51:19.694Z,50.20
2023-03-02T18:53:48.773Z,48.10
2023-03-02T18:56:17.640Z,43.80
2023-03-02T18:58:46.706Z,46.50
2023-03-02T19:01:15.061Z,46.40
2023-03-02T19:03:45.816Z,48.00
2023-03-02T19:06:15.012Z,42.40
2023-03-02T19:08:43.163Z,43.90
2023-03-02T19:11:11.966Z,44.60
2023-03-02T19:13:39.978Z,43.80
2023-03-02T19:16:08.490Z,44.90
2023-03-02T19:18:37.897Z,52.70
2023-03-02T19:21:06.505Z,52.50
2023-03-02T19:23:34.722Z,46.00
2023-03-02T19:26:04.953Z,45.40
2023-03-02T19:28:35.102Z,45.00
2023-03-02T19:31:06.643Z,46.30
2023-03-02T19:33:35.789Z,45.90
2023-03-02T19:36:05.144Z,47.80
2023-03-02T19:38:33.288Z,46.50
2023-03-02T19:41:02.123Z,46.70
2023-03-02T19:43:30.386Z,46.10
2023-03-02T19:45:58.721Z,49.00
2023-03-02T19:48:26.906Z,47.80
2023-03-02T19:50:54.988Z,49.30
2023-03-02T19:53:23.307Z,50.90
2023-03-02T19:55:52.657Z,51.10
2023-03-02T19:58:21.546Z,49.60
2023-03-02T20:00:49.732Z,47.20
2023-03-02T20:03:17.676Z,51.00
2023-03-02T20:05:45.617Z,49.70
2023-03-02T20:08:14.851Z,53.90
2023-03-02T20:10:49.435Z,52.70
2023-03-02T20:13:17.976Z,50.30
2023-03-02T20:15:47.308Z,51.20
2023-03-02T20:18:19.393Z,51.00
2023-03-02T20:20:48.638Z,48.40
2023-03-02T20:23:17.618Z,48.00
2023-03-02T20:25:48.229Z,47.20
2023-03-02T20:28:22.553Z,46.50
2023-03-02T20:30:58.744Z,47.50
2023-03-02T20:33:41.667Z,47.40
2023-03-02T20:36:11.566Z,49.70
2023-03-02T20:38:50.365Z,47.90
2023-03-02T20:41:18.923Z,49.00
2023-03-02T20:43:47.063Z,48.80
2023-03-02T20:46:24.238Z,48.40
2023-03-02T20:48:52.352Z,53.30
2023-03-02T20:51:21.877Z,48.30
2023-03-02T20:53:50.182Z,51.40
2023-03-02T20:56:18.754Z,50.00
2023-03-02T20:58:47.667Z,48.80
2023-03-02T21:01:17.072Z,48.90
2023-03-02T21:03:45.368Z,49.40
2023-03-02T21:06:15.250Z,48.30
2023-03-02T21:08:44.012Z,49.60
2023-03-02T21:11:16.391Z,48.60
2023-03-02T21:13:47.096Z,50.10
2023-03-02T21:16:27.481Z,52.50
2023-03-02T21:18:56.390Z,52.70
2023-03-02T21:21:39.425Z,52.20
2023-03-02T21:24:12.784Z,52.80
2023-03-02T21:26:41.774Z,51.40
2023-03-02T21:29:12.109Z,58.90
2023-03-02T21:31:42.339Z,59.60
2023-03-02T21:34:14.342Z,60.40
2023-03-02T21:36:42.832Z,58.10
2023-03-02T21:39:12.050Z,60.10
2023-03-02T21:41:40.409Z,58.30
2023-03-02T21:44:08.996Z,63.30
2023-03-02T21:46:38.697Z,67.90
2023-03-02T21:49:07.180Z,63.70
2023-03-02T21:51:35.384Z,60.70
2023-03-02T21:54:04.064Z,56.60
2023-03-02T21:56:31.952Z,63.40
2023-03-02T21:59:00.005Z,63.40
2023-03-02T22:01:29.797Z,61.40
2023-03-02T22:03:58.527Z,58.40
2023-03-02T22:06:30.298Z,57.10
2023-03-02T22:08:59.018Z,57.20
2023-03-02T22:11:32.793Z,57.40
2023-03-02T22:14:08.185Z,55.40
2023-03-02T22:16:39.597Z,56.70
2023-03-02T22:19:22.571Z,55.20
2023-03-02T22:21:52.142Z,55.10
2023-03-02T22:24:29.142Z,53.70
2023-03-02T22:27:27.591Z,53.90
2023-03-02T22:29:59.186Z,51.50
2023-03-02T22:32:30.480Z,60.90
2023-03-02T22:35:00.551Z,61.20
2023-03-02T22:37:33.057Z,54.90
2023-03-02T22:40:11.854Z,50.70
2023-03-02T22:42:40.058Z,54.30
2023-03-02T22:45:16.869Z,51.00
2023-03-02T22:47:49.128Z,50.40
2023-03-02T22:50:29.131Z,51.10
2023-03-02T22:53:02.178Z,49.30
2023-03-02T22:55:39.903Z,52.60
2023-03-02T22:58:32.166Z,53.50
2023-03-02T23:01:01.965Z,54.50
2023-03-02T23:03:39.906Z,54.50
2023-03-02T23:06:23.679Z,50.50
2023-03-02T23:08:53.401Z,51.80
2023-03-02T23:11:23.256Z,51.00
2023-03-02T23:13:52.459Z,51.50
2023-03-02T23:16:24.196Z,62.40
2023-03-02T23:18:54.993Z,52.40
2023-03-02T23:21:28.286Z,58.60
2023-03-02T23:23:56.489Z,55.70
2023-03-02T23:26:24.411Z,52.20
2023-03-02T23:28:52.311Z,50.40
2023-03-02T23:31:21.362Z,52.20
2023-03-02T23:33:49.452Z,65.60
2023-03-02T23:36:17.689Z,67.10
2023-03-02T23:38:45.591Z,54.20
2023-03-02T23:41:14.247Z,54.00
2023-03-02T23:43:42.102Z,53.80
2023-03-02T23:46:14.122Z,53.90
2023-03-02T23:48:43.179Z,54.50
2023-03-02T23:51:11.126Z,53.40
2023-03-02T23:53:39.102Z,54.20
2023-03-02T23:56:07.662Z,52.20
2023-03-02T23:58:35.605Z,51.70
